Terminal Aerodrome Forecast
Issued by NWS

Home | Current Version | Previous Version | Graphics & Text | Print | Product List | Glossary On
Versions: 1 2 3 4 5 6 7 8 9 10 11 12 13 14 15 16 17 18 19 20 21 22 23 24 25 26 27 28 29 30 31 32 33 34 35 36
000
FTUS43 KLOT 261400 AAB
TAFORD
TAF AMD
KORD 261433Z 2615/2718 03013G18KT 2SM -SHSN BLSN SCT015 OVC020
      TEMPO 2615/2617 1/2SM -SHSN BLSN VV010
     FM261700 02012G18KT 3SM -SHSN BLSN SCT020 OVC035
     FM261900 36011G17KT 6SM -SHSN BLSN SCT020 BKN035
     FM262100 34012KT P6SM SCT035
     FM270100 33007KT P6SM FEW040
     FM271500 27009KT P6SM SKC=

USA.gov is the U.S. government's official web portal to all federal, state and local government web resources and services.